Time;durP1;ratioP1;P1;durP2;ratioP2;P2;SDS_P1;SDS_P2;PMS_P1;PMS_P2;Temp;Humidity;BMP_temperature;BMP_pressure;BME280_temperature;BME280_humidity;BME280_pressure;Samples;Min_cycle;Max_cycle;Signal;HPM_P1;HPM_P2
2021/11/01 00:00:09;;;;;;;16.40;3.75;;;13.80;99.90;;;;;;2072136;28;20128;-69
2021/11/01 00:01:11;;;;;;;11.88;3.55;;;13.80;99.90;;;;;;2072573;28;20022;-69
2021/11/01 00:02:11;;;;;;;13.40;3.30;;;13.80;99.90;;;;;;2072229;28;20065;-70
2021/11/01 00:03:12;;;;;;;11.75;3.03;;;13.80;99.90;;;;;;2073054;28;20018;-70
2021/11/01 00:04:13;;;;;;;12.93;3.80;;;13.80;99.90;;;;;;2072433;28;20049;-70
2021/11/01 00:05:15;;;;;;;11.20;2.97;;;13.70;99.90;;;;;;2072055;28;20093;-69
2021/11/01 00:06:16;;;;;;;14.02;3.75;;;13.80;99.90;;;;;;2072439;28;20029;-70
2021/11/01 00:07:17;;;;;;;10.20;2.97;;;13.70;99.90;;;;;;2072889;28;20560;-70
2021/11/01 00:08:18;;;;;;;11.80;3.70;;;13.70;99.90;;;;;;2072129;28;20598;-70
2021/11/01 00:09:18;;;;;;;10.45;3.45;;;13.70;99.90;;;;;;2072235;28;20429;-70
2021/11/01 00:10:20;;;;;;;11.68;3.08;;;13.70;99.90;;;;;;2072540;28;20026;-70
2021/11/01 00:11:21;;;;;;;13.50;3.67;;;13.70;99.90;;;;;;2067445;28;20024;-70
2021/11/01 00:12:27;;;;;;;14.52;3.47;;;13.70;99.90;;;;;;2076778;28;20025;-70
2021/11/01 00:13:27;;;;;;;11.23;3.80;;;13.70;99.90;;;;;;2072243;28;20022;-70
2021/11/01 00:14:28;;;;;;;11.90;3.95;;;13.70;99.90;;;;;;2072587;28;20061;-70
2021/11/01 00:15:28;;;;;;;14.65;3.05;;;13.70;99.90;;;;;;2072334;28;20105;-70
2021/11/01 00:16:29;;;;;;;10.88;3.75;;;13.60;99.90;;;;;;2069763;28;20088;-70
2021/11/01 00:17:30;;;;;;;10.15;3.05;;;13.70;99.90;;;;;;2069917;28;20492;-70
2021/11/01 00:18:30;;;;;;;20.08;3.90;;;13.70;99.90;;;;;;2065559;28;20081;-70
2021/11/01 00:19:31;;;;;;;10.65;3.40;;;13.60;99.90;;;;;;2066001;28;20018;-70
2021/11/01 00:20:31;;;;;;;12.88;3.10;;;13.70;99.90;;;;;;2068057;28;20053;-69
2021/11/01 00:21:32;;;;;;;11.82;2.92;;;13.60;99.90;;;;;;2072862;28;20068;-69
2021/11/01 00:22:34;;;;;;;12.90;3.25;;;13.60;99.90;;;;;;2072576;28;20018;-70
2021/11/01 00:23:35;;;;;;;15.50;3.97;;;13.60;99.90;;;;;;2072153;28;20061;-70
2021/11/01 00:24:36;;;;;;;14.55;3.33;;;13.60;99.90;;;;;;2072141;28;20026;-70
2021/11/01 00:25:37;;;;;;;15.55;3.67;;;13.60;99.90;;;;;;2072003;28;20485;-70
2021/11/01 00:26:38;;;;;;;8.85;2.47;;;13.60;99.90;;;;;;2071781;28;20022;-69
2021/11/01 00:27:38;;;;;;;8.23;3.20;;;13.60;99.90;;;;;;2069296;28;20055;-69
2021/11/01 00:28:40;;;;;;;9.60;3.30;;;13.60;99.90;;;;;;2072354;28;20488;-69
2021/11/01 00:29:42;;;;;;;12.50;2.78;;;13.50;99.90;;;;;;2071704;28;20374;-69
2021/11/01 00:30:43;;;;;;;16.85;3.75;;;13.50;99.90;;;;;;2070017;28;20033;-69
2021/11/01 00:31:43;;;;;;;16.10;3.67;;;13.50;99.90;;;;;;2072340;28;20032;-69
2021/11/01 00:32:46;;;;;;;13.52;3.35;;;13.50;99.90;;;;;;2072188;28;20069;-70
2021/11/01 00:33:47;;;;;;;16.40;3.47;;;13.50;99.90;;;;;;2072729;28;20025;-70
2021/11/01 00:34:48;;;;;;;17.58;3.45;;;13.50;99.90;;;;;;2072190;28;20034;-70
2021/11/01 00:35:49;;;;;;;9.13;2.95;;;13.50;99.90;;;;;;2071959;28;20030;-70
2021/11/01 00:36:52;;;;;;;13.85;3.30;;;13.40;99.90;;;;;;2072351;28;20104;-69
2021/11/01 00:37:53;;;;;;;11.77;3.28;;;13.40;99.90;;;;;;2071974;28;20025;-70
2021/11/01 00:38:54;;;;;;;10.27;2.53;;;13.40;99.90;;;;;;2071853;28;20021;-70
2021/11/01 00:39:57;;;;;;;7.78;2.67;;;13.40;99.90;;;;;;2071996;28;20034;-70
2021/11/01 00:40:58;;;;;;;9.55;2.85;;;13.40;99.90;;;;;;2072284;28;20486;-70
2021/11/01 00:41:59;;;;;;;10.25;3.53;;;13.40;99.90;;;;;;2072244;28;20025;-70
2021/11/01 00:43:03;;;;;;;11.88;3.25;;;13.40;99.90;;;;;;2072412;28;20038;-69
2021/11/01 00:44:03;;;;;;;16.50;3.60;;;13.40;99.90;;;;;;2072109;28;20026;-70
2021/11/01 00:45:05;;;;;;;11.75;3.40;;;13.30;99.90;;;;;;2072053;28;20022;-70
2021/11/01 00:46:05;;;;;;;12.10;3.58;;;13.30;99.90;;;;;;2072246;28;20041;-70
2021/11/01 00:47:06;;;;;;;14.75;3.33;;;13.30;99.90;;;;;;2072108;28;20109;-69
2021/11/01 00:48:07;;;;;;;11.43;3.03;;;13.30;99.90;;;;;;2071719;28;20497;-70
2021/11/01 00:49:08;;;;;;;15.07;3.00;;;13.30;99.90;;;;;;2072091;28;20095;-70
2021/11/01 00:50:09;;;;;;;13.00;3.67;;;13.30;99.90;;;;;;2071913;28;20104;-70
2021/11/01 00:51:10;;;;;;;12.13;3.53;;;13.30;99.90;;;;;;2072090;28;20037;-70
2021/11/01 00:52:10;;;;;;;12.30;2.92;;;13.30;99.90;;;;;;2072303;28;20030;-70
2021/11/01 00:53:12;;;;;;;13.98;3.08;;;13.30;99.90;;;;;;2072189;28;20029;-69
2021/11/01 00:54:12;;;;;;;12.45;2.95;;;13.30;99.90;;;;;;2072341;28;20871;-69
2021/11/01 00:55:21;;;;;;;13.07;3.58;;;13.20;99.90;;;;;;2071859;28;20514;-70
2021/11/01 00:56:22;;;;;;;14.57;3.03;;;13.20;99.90;;;;;;2072506;28;20060;-69
2021/11/01 00:57:23;;;;;;;14.68;3.50;;;13.20;99.90;;;;;;2072149;28;20029;-70
2021/11/01 00:58:25;;;;;;;11.45;3.22;;;13.20;99.90;;;;;;2075582;28;20028;-69
2021/11/01 00:59:26;;;;;;;11.90;2.92;;;13.20;99.90;;;;;;2071461;28;20064;-69
2021/11/01 01:00:29;;;;;;;11.25;3.05;;;13.10;99.90;;;;;;2069899;28;20112;-69
2021/11/01 01:01:32;;;;;;;17.88;3.70;;;13.10;99.90;;;;;;2071599;28;20100;-70
2021/11/01 01:02:33;;;;;;;13.82;3.35;;;13.10;99.90;;;;;;2071384;28;20018;-70
2021/11/01 01:03:34;;;;;;;12.20;2.88;;;13.10;99.90;;;;;;2072372;28;20025;-70
2021/11/01 01:04:34;;;;;;;12.48;3.20;;;13.10;99.90;;;;;;2079784;28;20020;-70
2021/11/01 01:05:35;;;;;;;10.13;3.17;;;13.10;99.90;;;;;;2074862;28;20032;-69
2021/11/01 01:06:36;;;;;;;11.13;3.47;;;13.10;99.90;;;;;;2077106;28;20076;-69
2021/11/01 01:07:36;;;;;;;11.50;2.80;;;13.10;99.90;;;;;;2071720;28;20390;-69
2021/11/01 01:08:37;;;;;;;15.43;3.33;;;13.00;99.90;;;;;;2071437;28;20049;-69
2021/11/01 01:09:38;;;;;;;14.10;3.00;;;13.00;99.90;;;;;;2072190;28;21132;-69
2021/11/01 01:10:39;;;;;;;12.57;3.22;;;13.00;99.90;;;;;;2072114;28;20025;-69
2021/11/01 01:11:40;;;;;;;11.50;2.72;;;13.00;99.90;;;;;;2071788;28;20025;-69
2021/11/01 01:12:44;;;;;;;8.93;2.72;;;13.00;99.90;;;;;;2071968;28;20481;-69
2021/11/01 01:13:45;;;;;;;9.25;3.10;;;12.90;99.90;;;;;;2063692;28;20022;-70
2021/11/01 01:14:53;;;;;;;11.95;3.00;;;13.00;99.90;;;;;;2067211;28;20291;-69
2021/11/01 01:17:13;;;;;;;7.63;2.90;;;12.90;99.90;;;;;;2070058;28;20478;-70
2021/11/01 01:18:18;;;;;;;9.70;3.22;;;12.90;99.90;;;;;;2071494;28;20037;-70
2021/11/01 01:19:23;;;;;;;9.02;3.15;;;12.90;99.90;;;;;;2071808;28;20045;-69
2021/11/01 01:20:23;;;;;;;9.88;2.80;;;12.90;99.90;;;;;;2072165;28;20117;-69
2021/11/01 01:22:46;;;;;;;12.60;3.38;;;12.90;99.90;;;;;;2071673;28;20558;-70
2021/11/01 01:23:47;;;;;;;12.57;3.25;;;12.80;99.90;;;;;;2071683;28;20759;-70
2021/11/01 01:24:48;;;;;;;10.70;2.55;;;12.80;99.90;;;;;;2071798;28;20022;-69
2021/11/01 01:25:55;;;;;;;9.82;2.63;;;12.80;99.90;;;;;;2071896;28;20046;-69
2021/11/01 01:26:55;;;;;;;13.80;3.50;;;12.80;99.90;;;;;;2071149;28;20125;-70
2021/11/01 01:27:56;;;;;;;18.10;4.03;;;12.80;99.90;;;;;;2071167;28;20034;-70
2021/11/01 01:28:57;;;;;;;13.60;3.42;;;12.80;99.90;;;;;;2071259;28;20037;-70
2021/11/01 01:29:58;;;;;;;11.82;2.97;;;12.80;99.90;;;;;;2071574;28;20121;-70
2021/11/01 01:31:00;;;;;;;10.02;3.42;;;12.80;99.90;;;;;;2071803;28;20473;-70
2021/11/01 01:32:01;;;;;;;9.73;3.00;;;12.80;99.90;;;;;;2065302;28;20042;-69
2021/11/01 01:33:02;;;;;;;12.65;2.78;;;12.80;99.90;;;;;;2070292;28;20038;-70
2021/11/01 01:34:03;;;;;;;10.43;2.67;;;12.80;99.90;;;;;;2071922;28;20030;-70
2021/11/01 01:35:04;;;;;;;12.65;2.58;;;12.80;99.90;;;;;;2071827;28;20022;-69
2021/11/01 01:36:06;;;;;;;11.18;2.80;;;12.80;99.90;;;;;;2071814;28;20038;-69
2021/11/01 01:37:06;;;;;;;14.27;3.20;;;12.70;99.90;;;;;;2071811;28;20033;-69
2021/11/01 01:38:08;;;;;;;11.13;2.85;;;12.70;99.90;;;;;;2071388;28;20026;-69
2021/11/01 01:39:09;;;;;;;17.73;3.22;;;12.70;99.90;;;;;;2070510;28;20060;-69
2021/11/01 01:40:11;;;;;;;15.07;3.00;;;12.70;99.90;;;;;;2070681;28;20030;-70
2021/11/01 01:41:18;;;;;;;9.18;2.95;;;12.60;99.90;;;;;;2070826;28;20029;-70
2021/11/01 01:42:18;;;;;;;11.32;2.88;;;12.70;99.90;;;;;;2068148;28;20030;-69
2021/11/01 01:43:19;;;;;;;10.13;2.97;;;12.70;99.90;;;;;;2062825;28;20102;-70
2021/11/01 01:44:19;;;;;;;12.35;2.65;;;12.70;99.90;;;;;;2069009;28;20513;-70
2021/11/01 01:45:20;;;;;;;12.38;3.00;;;12.60;99.90;;;;;;2070939;28;20034;-70
2021/11/01 01:46:22;;;;;;;10.18;3.00;;;12.60;99.90;;;;;;2063882;28;20030;-70
2021/11/01 01:47:23;;;;;;;11.65;2.85;;;12.60;99.90;;;;;;2068562;28;20096;-69
2021/11/01 01:48:24;;;;;;;8.75;2.70;;;12.60;99.90;;;;;;2071188;28;20026;-69
2021/11/01 01:49:24;;;;;;;9.20;2.40;;;12.70;99.90;;;;;;2071653;28;20028;-70
2021/11/01 01:50:25;;;;;;;9.88;2.55;;;12.60;99.90;;;;;;2071598;28;20113;-69
2021/11/01 01:51:28;;;;;;;9.75;3.00;;;12.60;99.90;;;;;;2071940;28;20379;-69
2021/11/01 01:52:30;;;;;;;10.70;2.97;;;12.60;99.90;;;;;;2071691;28;20108;-69
2021/11/01 01:53:30;;;;;;;13.00;3.20;;;12.60;99.90;;;;;;2071510;28;20025;-70
2021/11/01 01:54:31;;;;;;;15.00;2.92;;;12.60;99.90;;;;;;2071714;28;20054;-69
2021/11/01 01:55:34;;;;;;;11.85;3.03;;;12.60;99.90;;;;;;2071273;28;20371;-69
2021/11/01 01:56:34;;;;;;;11.80;3.30;;;12.60;99.90;;;;;;2071823;28;20018;-69
2021/11/01 01:57:36;;;;;;;8.70;2.90;;;12.60;99.90;;;;;;2071506;28;20032;-69
2021/11/01 01:58:41;;;;;;;9.80;2.60;;;12.60;99.90;;;;;;2078668;28;20104;-69
2021/11/01 01:59:43;;;;;;;12.02;3.17;;;12.60;99.90;;;;;;2078172;28;20017;-69
2021/11/01 02:01:26;;;;;;;14.93;2.97;;;12.60;99.90;;;;;;2070954;28;20473;-69
2021/11/01 02:02:07;;;;;;;8.90;2.50;;;12.60;99.90;;;;;;2069454;28;20042;-69
2021/11/01 02:03:09;;;;;;;16.88;3.38;;;12.60;99.90;;;;;;2071165;28;20045;-70
2021/11/01 02:04:10;;;;;;;11.98;2.58;;;12.60;99.90;;;;;;2071732;28;20085;-70
2021/11/01 02:05:11;;;;;;;13.23;3.33;;;12.50;99.90;;;;;;2071447;28;20106;-70
2021/11/01 02:06:44;;;;;;;12.20;3.22;;;12.50;99.90;;;;;;2071894;28;20026;-70
2021/11/01 02:07:50;;;;;;;12.05;2.78;;;12.50;99.90;;;;;;2063334;28;20019;-70
2021/11/01 02:09:12;;;;;;;12.52;3.00;;;12.50;99.90;;;;;;2070304;28;20018;-70
2021/11/01 02:10:16;;;;;;;16.60;4.00;;;12.40;99.90;;;;;;2071599;28;20401;-70
2021/11/01 02:11:22;;;;;;;14.73;3.10;;;12.40;99.90;;;;;;2071184;28;20048;-69
2021/11/01 02:12:41;;;;;;;10.32;3.10;;;12.40;99.90;;;;;;2071299;28;20064;-69
2021/11/01 02:13:46;;;;;;;10.88;2.90;;;12.40;99.90;;;;;;2064463;28;20038;-69
2021/11/01 02:14:53;;;;;;;9.57;2.67;;;12.40;99.90;;;;;;2064083;28;20073;-69
2021/11/01 02:15:57;;;;;;;15.18;2.92;;;12.40;99.90;;;;;;2071554;28;20430;-70
2021/11/01 02:17:00;;;;;;;14.88;2.85;;;12.40;99.90;;;;;;2071648;28;20041;-70
2021/11/01 02:18:04;;;;;;;13.25;3.05;;;12.40;99.90;;;;;;2071353;28;20469;-69
2021/11/01 02:19:10;;;;;;;13.85;3.30;;;12.40;99.90;;;;;;2071031;28;20524;-70
2021/11/01 02:20:19;;;;;;;6.45;2.30;;;12.40;99.90;;;;;;2071270;28;20033;-69
2021/11/01 02:21:46;;;;;;;9.60;2.80;;;12.40;99.90;;;;;;2071714;28;20111;-69
2021/11/01 02:22:58;;;;;;;11.30;2.72;;;12.40;99.90;;;;;;2071495;28;20101;-70
2021/11/01 02:24:04;;;;;;;9.50;2.25;;;12.30;99.90;;;;;;2071447;28;20026;-69
2021/11/01 02:25:42;;;;;;;8.68;2.55;;;12.40;99.90;;;;;;2079265;28;20029;-69
2021/11/01 02:26:43;;;;;;;13.93;3.17;;;12.30;99.90;;;;;;2057440;28;20118;-69
2021/11/01 02:27:44;;;;;;;13.48;2.53;;;12.30;99.90;;;;;;2071129;28;20082;-70
2021/11/01 02:28:45;;;;;;;10.18;3.00;;;12.30;99.90;;;;;;2070649;28;20030;-69
2021/11/01 02:29:48;;;;;;;10.07;2.90;;;12.30;99.90;;;;;;2071395;28;20037;-70
2021/11/01 02:30:50;;;;;;;10.07;2.95;;;12.30;99.90;;;;;;2071084;28;20037;-70
2021/11/01 02:31:51;;;;;;;11.82;3.13;;;12.30;99.90;;;;;;2071446;28;20022;-69
2021/11/01 02:32:52;;;;;;;7.90;2.70;;;12.30;99.90;;;;;;2071310;28;20080;-70
2021/11/01 02:33:53;;;;;;;8.98;2.28;;;12.30;99.90;;;;;;2071522;28;20386;-70
2021/11/01 02:34:54;;;;;;;11.73;2.65;;;12.30;99.90;;;;;;2071170;28;20037;-69
2021/11/01 02:35:55;;;;;;;12.18;2.80;;;12.30;99.90;;;;;;2071631;28;20112;-69
2021/11/01 02:36:56;;;;;;;10.55;2.65;;;12.30;99.90;;;;;;2071363;28;20539;-69
2021/11/01 02:37:58;;;;;;;11.63;2.88;;;12.30;99.90;;;;;;2071309;28;20473;-69
2021/11/01 02:38:59;;;;;;;14.57;3.38;;;12.30;99.90;;;;;;2070336;28;20043;-70
2021/11/01 02:40:00;;;;;;;11.48;2.72;;;12.40;99.90;;;;;;2071627;28;20026;-70
2021/11/01 02:41:16;;;;;;;8.77;2.00;;;12.30;99.90;;;;;;2070921;28;20037;-70
2021/11/01 02:42:17;;;;;;;10.48;2.63;;;12.30;99.90;;;;;;2071368;28;20030;-69
2021/11/01 02:43:18;;;;;;;10.23;3.17;;;12.30;99.90;;;;;;2071037;28;20393;-69
2021/11/01 02:44:22;;;;;;;9.48;2.75;;;12.40;99.90;;;;;;2071238;28;20092;-70
2021/11/01 02:45:23;;;;;;;8.68;2.20;;;12.30;99.90;;;;;;2071475;28;20029;-69
2021/11/01 02:46:25;;;;;;;10.45;2.60;;;12.30;99.90;;;;;;2071568;28;20049;-69
2021/11/01 02:47:28;;;;;;;11.90;2.95;;;12.30;99.90;;;;;;2071325;28;20029;-69
2021/11/01 02:48:28;;;;;;;9.50;2.47;;;12.30;99.90;;;;;;2070924;28;20505;-69
2021/11/01 02:49:29;;;;;;;7.60;2.55;;;12.30;99.90;;;;;;2071266;28;20049;-69
2021/11/01 02:50:30;;;;;;;9.88;2.40;;;12.30;99.90;;;;;;2070999;28;20065;-69
2021/11/01 02:51:30;;;;;;;13.57;2.65;;;12.30;99.90;;;;;;2071018;28;20037;-69
2021/11/01 02:52:31;;;;;;;11.23;2.55;;;12.30;99.90;;;;;;2070788;28;20487;-69
2021/11/01 02:53:32;;;;;;;9.48;2.35;;;12.30;99.90;;;;;;2070485;28;20088;-69
2021/11/01 02:54:32;;;;;;;7.88;2.30;;;12.40;99.90;;;;;;2062979;28;20105;-69
2021/11/01 02:55:34;;;;;;;11.38;2.75;;;12.30;99.90;;;;;;2062429;28;20030;-69
2021/11/01 02:56:34;;;;;;;12.27;3.05;;;12.30;99.90;;;;;;2070809;28;20532;-69
2021/11/01 02:57:35;;;;;;;7.90;2.35;;;12.30;99.90;;;;;;2070322;28;20650;-69
2021/11/01 02:58:40;;;;;;;13.98;2.85;;;12.30;99.90;;;;;;2070698;28;20014;-69
2021/11/01 02:59:41;;;;;;;9.90;2.50;;;12.30;99.90;;;;;;2069076;28;20435;-69
2021/11/01 03:00:41;;;;;;;5.78;2.22;;;12.30;99.90;;;;;;2069344;28;20593;-69
2021/11/01 03:01:42;;;;;;;9.25;2.95;;;12.30;99.90;;;;;;2072107;28;20450;-69
2021/11/01 03:02:43;;;;;;;9.73;2.78;;;12.30;99.90;;;;;;2072704;28;20110;-71
2021/11/01 03:03:44;;;;;;;10.93;2.20;;;12.30;99.90;;;;;;2072462;28;20014;-69
2021/11/01 03:04:45;;;;;;;9.52;2.47;;;12.30;99.90;;;;;;2072684;28;20026;-69
2021/11/01 03:05:46;;;;;;;9.25;2.20;;;12.30;99.90;;;;;;2072612;28;20061;-71
2021/11/01 03:06:47;;;;;;;11.90;2.60;;;12.30;99.90;;;;;;2080153;28;20029;-70
2021/11/01 03:07:49;;;;;;;12.07;2.90;;;12.30;99.90;;;;;;2080128;28;20033;-69
2021/11/01 03:08:52;;;;;;;8.18;2.60;;;12.30;99.90;;;;;;2072200;28;20034;-69
2021/11/01 03:09:53;;;;;;;7.22;2.50;;;12.30;99.90;;;;;;2072276;28;20034;-69
2021/11/01 03:10:55;;;;;;;10.27;2.28;;;12.30;99.90;;;;;;2072279;28;20057;-69
2021/11/01 03:12:02;;;;;;;10.27;3.22;;;12.30;99.90;;;;;;2072505;28;20025;-69
2021/11/01 03:13:03;;;;;;;9.20;2.20;;;12.30;99.90;;;;;;2072357;28;20088;-69
2021/11/01 03:14:04;;;;;;;11.10;2.22;;;12.30;99.90;;;;;;2072640;28;20076;-69
2021/11/01 03:15:07;;;;;;;12.57;2.55;;;12.30;99.90;;;;;;2072688;28;20098;-69
2021/11/01 03:16:09;;;;;;;12.55;2.85;;;12.30;99.90;;;;;;2072708;28;20038;-70
2021/11/01 03:17:14;;;;;;;8.63;2.38;;;12.20;99.90;;;;;;2072087;28;20064;-69
2021/11/01 03:18:16;;;;;;;8.38;2.70;;;12.20;99.90;;;;;;2070494;28;20072;-69
2021/11/01 03:19:21;;;;;;;7.05;1.98;;;12.20;99.90;;;;;;2071659;28;20036;-69
2021/11/01 03:20:40;;;;;;;9.68;2.70;;;12.30;99.90;;;;;;2071869;28;20105;-69
2021/11/01 03:21:42;;;;;;;6.75;2.17;;;12.20;99.90;;;;;;2072382;28;20053;-69
2021/11/01 03:22:47;;;;;;;10.48;2.55;;;12.20;99.90;;;;;;2072546;28;20042;-69
2021/11/01 03:23:49;;;;;;;11.35;2.25;;;12.20;99.90;;;;;;2072600;28;20390;-69
2021/11/01 03:24:52;;;;;;;6.63;2.50;;;12.20;99.90;;;;;;2069723;28;20389;-69
2021/11/01 03:26:03;;;;;;;11.45;2.65;;;12.20;99.90;;;;;;2068098;28;20417;-69
2021/11/01 03:27:06;;;;;;;13.23;3.00;;;12.20;99.90;;;;;;2072256;28;20109;-69
2021/11/01 03:28:08;;;;;;;12.38;2.70;;;12.20;99.90;;;;;;2071937;28;20470;-69
2021/11/01 03:29:11;;;;;;;10.55;2.28;;;12.20;99.90;;;;;;2072147;28;20355;-69
2021/11/01 03:30:14;;;;;;;9.65;2.85;;;12.20;99.90;;;;;;2072543;28;20034;-69
2021/11/01 03:31:16;;;;;;;9.45;2.20;;;12.20;99.90;;;;;;2072399;28;20052;-69
2021/11/01 03:32:17;;;;;;;6.65;2.30;;;12.20;99.90;;;;;;2072762;28;20026;-69
2021/11/01 03:33:18;;;;;;;10.15;2.50;;;12.20;99.90;;;;;;2072542;28;20092;-69
2021/11/01 03:34:21;;;;;;;7.78;2.40;;;12.20;99.90;;;;;;2072770;28;20042;-69
2021/11/01 03:35:25;;;;;;;9.68;2.33;;;12.20;99.90;;;;;;2072424;28;20045;-69
2021/11/01 03:36:27;;;;;;;6.55;2.42;;;12.20;99.90;;;;;;2072608;28;20029;-69
2021/11/01 03:37:29;;;;;;;13.95;2.30;;;12.20;99.90;;;;;;2072212;28;20439;-69
2021/11/01 03:38:31;;;;;;;9.00;2.40;;;12.20;99.90;;;;;;2072215;28;20076;-69
2021/11/01 03:39:32;;;;;;;14.63;2.65;;;12.20;99.90;;;;;;2070523;28;20072;-69
2021/11/01 03:40:34;;;;;;;10.50;2.42;;;12.10;99.90;;;;;;2073867;28;20041;-69
2021/11/01 03:41:36;;;;;;;8.77;2.28;;;12.10;99.90;;;;;;2078800;28;20022;-70
2021/11/01 03:42:36;;;;;;;6.72;2.35;;;12.20;99.90;;;;;;2072690;28;20010;-69
2021/11/01 03:43:51;;;;;;;14.00;2.38;;;12.20;99.90;;;;;;2072328;28;20052;-69
2021/11/01 03:44:59;;;;;;;7.30;2.28;;;12.10;99.90;;;;;;2072041;28;20022;-69
2021/11/01 03:46:03;;;;;;;8.32;2.65;;;12.10;99.90;;;;;;2071016;28;20030;-69
2021/11/01 03:47:05;;;;;;;9.60;2.67;;;12.10;99.90;;;;;;2066328;28;20023;-69
2021/11/01 03:48:08;;;;;;;10.73;3.05;;;12.10;99.90;;;;;;2072014;28;20030;-69
2021/11/01 03:49:10;;;;;;;9.45;2.42;;;12.10;99.90;;;;;;2072402;28;20025;-69
2021/11/01 03:51:39;;;;;;;8.43;2.22;;;12.10;99.90;;;;;;2072379;28;20088;-71
2021/11/01 03:52:42;;;;;;;5.47;1.83;;;12.10;99.90;;;;;;2072603;28;20018;-69
2021/11/01 03:53:43;;;;;;;9.82;2.30;;;12.00;99.90;;;;;;2071903;28;20022;-69
2021/11/01 03:54:44;;;;;;;6.40;1.73;;;12.00;99.90;;;;;;2072660;28;20022;-69
2021/11/01 03:55:44;;;;;;;12.30;1.73;;;12.00;99.90;;;;;;2071440;28;20025;-69
2021/11/01 03:56:46;;;;;;;7.63;2.03;;;12.00;99.90;;;;;;2071850;28;20029;-69
2021/11/01 03:57:48;;;;;;;10.38;2.15;;;12.00;99.90;;;;;;2064138;28;20487;-69
2021/11/01 03:58:49;;;;;;;10.32;2.20;;;12.00;99.90;;;;;;2069238;28;20026;-69
2021/11/01 03:59:52;;;;;;;7.85;2.70;;;12.00;99.90;;;;;;2069286;28;20046;-69
2021/11/01 04:00:53;;;;;;;12.95;2.42;;;12.00;99.90;;;;;;2072038;28;20030;-69
2021/11/01 04:01:54;;;;;;;8.45;2.38;;;12.00;99.90;;;;;;2071605;28;20024;-70
2021/11/01 04:02:56;;;;;;;9.77;2.35;;;12.10;99.90;;;;;;2072161;28;20029;-69
2021/11/01 04:03:59;;;;;;;6.03;2.17;;;12.00;99.90;;;;;;2072941;28;20044;-69
2021/11/01 04:05:01;;;;;;;6.32;2.20;;;12.00;99.90;;;;;;2073186;28;20053;-69
2021/11/01 04:06:04;;;;;;;8.07;2.42;;;12.00;99.90;;;;;;2073017;28;20494;-69
2021/11/01 04:07:05;;;;;;;9.02;2.20;;;12.00;99.90;;;;;;2073037;28;20057;-70
2021/11/01 04:08:05;;;;;;;9.68;2.65;;;12.00;99.90;;;;;;2071539;28;20033;-69
2021/11/01 04:09:08;;;;;;;11.77;2.88;;;12.00;99.90;;;;;;2073099;28;20536;-69
2021/11/01 04:10:09;;;;;;;6.63;2.28;;;12.00;99.90;;;;;;2072696;28;20029;-69
2021/11/01 04:11:13;;;;;;;7.93;2.53;;;12.00;99.90;;;;;;2071971;28;20018;-69
2021/11/01 04:12:14;;;;;;;9.73;2.35;;;12.00;99.90;;;;;;2064587;28;20022;-69
2021/11/01 04:13:16;;;;;;;8.93;2.75;;;12.00;99.90;;;;;;2068132;28;20474;-69
2021/11/01 04:14:21;;;;;;;9.38;2.40;;;12.00;99.90;;;;;;2072425;28;20026;-69
2021/11/01 04:15:24;;;;;;;10.15;2.40;;;12.00;99.90;;;;;;2072434;28;20034;-69
2021/11/01 04:16:29;;;;;;;7.10;2.05;;;12.00;99.90;;;;;;2072650;28;20037;-69
2021/11/01 04:17:43;;;;;;;9.57;2.63;;;12.00;99.90;;;;;;2072657;28;20032;-69
2021/11/01 04:20:57;;;;;;;9.95;2.42;;;11.90;99.90;;;;;;2072119;28;20445;-69
2021/11/01 04:21:58;;;;;;;8.02;2.33;;;11.90;99.90;;;;;;2071850;28;20026;-69
2021/11/01 04:23:08;;;;;;;10.60;2.60;;;11.90;99.90;;;;;;2072545;28;20029;-69
2021/11/01 04:24:09;;;;;;;11.50;3.13;;;11.90;99.90;;;;;;2072752;28;20053;-69
2021/11/01 04:25:10;;;;;;;12.50;2.35;;;11.90;99.90;;;;;;2072574;28;20624;-69
2021/11/01 04:26:14;;;;;;;10.25;2.38;;;11.90;99.90;;;;;;2072382;28;20029;-70
2021/11/01 04:27:15;;;;;;;5.72;2.22;;;11.90;99.90;;;;;;2072423;28;20018;-69
2021/11/01 04:28:15;;;;;;;8.00;2.83;;;11.90;99.90;;;;;;2071917;28;20029;-69
2021/11/01 04:29:17;;;;;;;10.98;2.58;;;11.90;99.90;;;;;;2072172;28;20029;-70
2021/11/01 04:30:18;;;;;;;12.20;2.72;;;11.90;99.90;;;;;;2072332;28;20109;-69
2021/11/01 04:31:25;;;;;;;7.95;2.33;;;11.90;99.90;;;;;;2072470;28;20710;-69
2021/11/01 04:32:34;;;;;;;10.20;2.47;;;11.90;99.90;;;;;;2079837;28;20025;-69
2021/11/01 04:33:36;;;;;;;7.65;2.08;;;11.90;99.90;;;;;;2078885;28;20036;-69
2021/11/01 04:34:40;;;;;;;7.15;1.80;;;11.90;99.90;;;;;;2072580;28;20033;-69
2021/11/01 04:35:41;;;;;;;9.30;2.25;;;11.90;99.90;;;;;;2072427;28;20049;-69
2021/11/01 04:36:42;;;;;;;6.38;2.15;;;11.90;99.90;;;;;;2072200;28;20044;-70
2021/11/01 04:37:44;;;;;;;7.82;2.67;;;11.90;99.90;;;;;;2071915;28;20147;-69
2021/11/01 04:43:54;;;;;;;10.25;2.58;;;11.80;99.90;;;;;;2072589;28;20026;-69
2021/11/01 04:53:48;;;;;;;8.85;2.30;;;11.70;99.90;;;;;;2072532;28;20112;-69
2021/11/01 04:54:52;;;;;;;8.27;2.38;;;11.70;99.90;;;;;;2072438;28;20084;-69
2021/11/01 04:55:53;;;;;;;9.85;2.45;;;11.70;99.90;;;;;;2068372;28;20026;-69
2021/11/01 04:56:54;;;;;;;8.43;2.20;;;11.70;99.90;;;;;;2072003;28;20033;-69
2021/11/01 04:57:57;;;;;;;10.02;2.60;;;11.70;99.90;;;;;;2072201;28;20030;-69
2021/11/01 04:58:58;;;;;;;10.00;2.33;;;11.70;99.90;;;;;;2071625;28;20126;-69
2021/11/01 04:59:58;;;;;;;11.00;3.03;;;11.70;99.90;;;;;;2071946;28;20038;-69
2021/11/01 05:00:59;;;;;;;8.95;2.38;;;11.70;99.90;;;;;;2072097;28;20105;-70
2021/11/01 05:02:00;;;;;;;9.43;3.08;;;11.70;99.90;;;;;;2072817;28;20037;-69
2021/11/01 05:03:49;;;;;;;6.65;2.03;;;11.70;99.90;;;;;;2079958;28;20097;-69
2021/11/01 05:04:24;;;;;;;8.57;2.05;;;11.70;99.90;;;;;;2069842;28;20078;-69
2021/11/01 05:05:25;;;;;;;8.07;1.98;;;11.70;99.90;;;;;;2072327;28;20458;-69
2021/11/01 05:06:26;;;;;;;7.43;2.20;;;11.60;99.90;;;;;;2071542;28;20457;-69
2021/11/01 05:07:28;;;;;;;9.07;2.22;;;11.60;99.90;;;;;;2071526;28;20026;-69
2021/11/01 05:08:38;;;;;;;9.65;2.45;;;11.60;99.90;;;;;;2066798;28;20490;-69
2021/11/01 05:09:49;;;;;;;6.38;2.17;;;11.70;99.90;;;;;;2064082;28;20442;-69
2021/11/01 05:10:54;;;;;;;7.80;2.13;;;11.60;99.90;;;;;;2072160;28;20053;-69
2021/11/01 05:13:08;;;;;;;8.23;2.33;;;11.60;99.90;;;;;;2071989;28;20470;-69
2021/11/01 05:14:13;;;;;;;8.48;2.40;;;11.60;99.90;;;;;;2071944;28;20037;-70
2021/11/01 05:15:25;;;;;;;8.20;2.08;;;11.60;99.90;;;;;;2071983;28;20050;-69
2021/11/01 05:16:43;;;;;;;9.57;2.17;;;11.60;99.90;;;;;;2071494;28;20033;-69
2021/11/01 05:19:30;;;;;;;9.60;2.55;;;11.60;99.90;;;;;;2071579;28;20022;-70
2021/11/01 05:23:49;;;;;;;7.32;2.08;;;11.60;99.90;;;;;;2071796;28;20113;-69
2021/11/01 05:25:01;;;;;;;9.65;2.20;;;11.50;99.90;;;;;;2072296;28;20018;-70
2021/11/01 05:26:12;;;;;;;8.00;1.90;;;11.50;99.90;;;;;;2071986;28;20200;-69
2021/11/01 05:27:36;;;;;;;4.68;1.70;;;11.50;99.90;;;;;;2071949;28;20024;-69
2021/11/01 05:28:49;;;;;;;7.97;2.40;;;11.50;99.90;;;;;;2071089;28;20451;-69
2021/11/01 05:29:53;;;;;;;9.00;2.22;;;11.50;99.90;;;;;;2069931;28;20018;-69
2021/11/01 05:30:58;;;;;;;9.48;1.98;;;11.50;99.90;;;;;;2071406;28;20030;-69
2021/11/01 05:32:12;;;;;;;6.68;1.77;;;11.50;99.90;;;;;;2072012;28;20343;-70
2021/11/01 05:34:17;;;;;;;11.00;2.17;;;11.50;99.90;;;;;;2071842;28;20022;-69
2021/11/01 05:35:18;;;;;;;4.47;1.65;;;11.50;99.90;;;;;;2072165;28;20112;-69
2021/11/01 05:36:20;;;;;;;6.45;2.33;;;11.50;99.90;;;;;;2071753;28;20026;-70
2021/11/01 05:37:21;;;;;;;8.07;1.90;;;11.50;99.90;;;;;;2071974;28;20084;-70
2021/11/01 05:38:21;;;;;;;11.13;2.42;;;11.50;99.90;;;;;;2071290;28;20168;-69
2021/11/01 05:39:22;;;;;;;5.72;1.92;;;11.50;99.90;;;;;;2071750;28;20047;-69
2021/11/01 05:40:23;;;;;;;6.00;2.03;;;11.50;99.90;;;;;;2071983;28;20495;-70
2021/11/01 05:41:23;;;;;;;5.18;1.95;;;11.50;99.90;;;;;;2072001;28;20022;-70
2021/11/01 05:42:24;;;;;;;5.68;1.90;;;11.50;99.90;;;;;;2071811;28;20111;-69
2021/11/01 05:43:25;;;;;;;8.43;2.58;;;11.50;99.90;;;;;;2071974;28;20105;-69
2021/11/01 05:44:25;;;;;;;6.60;1.98;;;11.50;99.90;;;;;;2071661;28;20482;-69
2021/11/01 05:45:26;;;;;;;10.60;2.42;;;11.50;99.90;;;;;;2067931;28;20036;-69
2021/11/01 05:46:34;;;;;;;10.88;1.98;;;11.50;99.90;;;;;;2072099;28;20133;-69
2021/11/01 05:47:34;;;;;;;5.18;1.80;;;11.50;99.90;;;;;;2071776;28;20112;-69
2021/11/01 05:48:36;;;;;;;9.80;1.85;;;11.50;99.90;;;;;;2071337;28;20022;-69
2021/11/01 05:49:38;;;;;;;6.03;1.70;;;11.50;99.90;;;;;;2072023;28;20045;-69
2021/11/01 05:50:39;;;;;;;10.88;2.72;;;11.50;99.90;;;;;;2071116;28;20068;-69
2021/11/01 05:51:40;;;;;;;9.73;2.15;;;11.50;99.90;;;;;;2071832;28;20072;-69
2021/11/01 05:52:42;;;;;;;10.35;2.40;;;11.50;99.90;;;;;;2071632;28;20034;-69